createdAt,value
2023-04-10T00:00:30.083Z,75.2287
2023-04-10T00:01:31.155Z,75.1458
2023-04-10T00:02:31.888Z,75.5868
2023-04-10T00:03:32.688Z,75.4118
2023-04-10T00:04:33.389Z,75.4895
2023-04-10T00:05:34.266Z,75.5959
2023-04-10T00:06:35.503Z,75.5257
2023-04-10T00:07:35.535Z,75.2292
2023-04-10T00:08:36.874Z,75.3099
2023-04-10T00:09:36.973Z,75.2566
2023-04-10T00:10:36.995Z,75.2515
2023-04-10T00:11:38.440Z,75.2378
2023-04-10T00:12:38.432Z,75.2591
2023-04-10T00:13:39.751Z,75.2262
2023-04-10T00:14:40.948Z,75.4501
2023-04-10T00:15:42.259Z,75.3359
2023-04-10T00:16:42.501Z,75.3778
2023-04-10T00:17:42.614Z,75.7452
2023-04-10T00:18:42.596Z,75.8337
2023-04-10T00:19:42.641Z,75.8592
2023-04-10T00:20:42.886Z,76.0704
2023-04-10T00:21:43.181Z,75.9716
2023-04-10T00:22:43.237Z,76.0107
2023-04-10T00:23:43.635Z,76.2693
2023-04-10T00:24:43.810Z,76.4253
2023-04-10T00:25:43.863Z,76.2424
2023-04-10T00:26:44.142Z,76.2974
2023-04-10T00:27:45.491Z,76.3603
2023-04-10T00:28:45.487Z,76.3045
2023-04-10T00:29:45.620Z,76.2134
2023-04-10T00:30:46.991Z,76.2467
2023-04-10T00:31:47.070Z,76.1021
2023-04-10T00:32:47.774Z,76.5470
2023-04-10T00:33:47.893Z,76.6589
2023-04-10T00:34:47.953Z,76.8439
2023-04-10T00:35:48.327Z,76.8636
2023-04-10T00:36:48.772Z,77.0359
2023-04-10T00:37:50.296Z,77.1240
2023-04-10T00:38:50.404Z,77.3052
2023-04-10T00:39:50.606Z,77.4549
2023-04-10T00:40:50.768Z,77.3716
2023-04-10T00:41:52.225Z,77.4521
2023-04-10T00:42:52.340Z,77.6083
2023-04-10T00:43:52.645Z,77.6369
2023-04-10T00:44:52.918Z,77.6640
2023-04-10T00:45:53.876Z,77.7191
2023-04-10T00:46:54.411Z,77.6091
2023-04-10T00:47:54.544Z,77.7123
2023-04-10T00:48:54.875Z,77.6791
2023-04-10T00:49:55.102Z,77.6648
2023-04-10T00:50:55.382Z,77.5701
2023-04-10T00:51:56.645Z,77.5562
2023-04-10T00:52:56.762Z,77.5519
2023-04-10T00:53:57.773Z,77.5561
2023-04-10T00:54:58.174Z,77.7553
2023-04-10T00:55:58.314Z,77.8756
2023-04-10T00:56:59.650Z,77.7794
2023-04-10T00:57:59.915Z,77.9790
2023-04-10T00:58:59.975Z,78.1758
2023-04-10T01:00:01.459Z,78.0961
2023-04-10T01:14:14.902Z,78.1385
2023-04-10T01:15:15.209Z,78.5459
2023-04-10T01:16:15.540Z,78.4768
2023-04-10T01:17:16.167Z,78.4104
2023-04-10T01:18:16.517Z,78.5949
2023-04-10T01:19:17.953Z,78.7949
2023-04-10T01:20:18.276Z,79.0605
2023-04-10T01:23:19.781Z,79.4765
2023-04-10T01:24:19.924Z,79.5988
2023-04-10T01:25:20.256Z,79.5681
2023-04-10T01:26:20.689Z,79.1707
2023-04-10T01:27:20.810Z,79.1776
2023-04-10T01:28:21.372Z,79.3331
2023-04-10T01:29:21.432Z,79.2934
2023-04-10T01:30:21.455Z,79.3620
2023-04-10T01:31:22.054Z,79.4186
2023-04-10T01:32:22.594Z,79.5163
2023-04-10T01:33:23.224Z,79.4361
2023-04-10T01:34:23.607Z,79.3220
2023-04-10T01:35:23.996Z,78.8468
2023-04-10T01:36:24.854Z,78.8301
2023-04-10T01:37:25.235Z,79.4037
2023-04-10T01:38:25.720Z,79.1116
2023-04-10T01:39:26.121Z,78.8337
2023-04-10T01:40:26.716Z,79.0830
2023-04-10T01:41:27.554Z,79.0108
2023-04-10T01:42:28.329Z,79.1822
2023-04-10T01:43:28.632Z,79.3463
2023-04-10T01:44:28.905Z,79.3242
2023-04-10T01:45:29.367Z,79.6434
2023-04-10T01:46:30.047Z,79.6325
2023-04-10T01:47:31.240Z,79.6913
2023-04-10T01:50:31.247Z,79.5158
2023-04-10T01:51:31.619Z,79.7969
2023-04-10T01:52:32.418Z,79.5345
2023-04-10T01:53:32.886Z,79.5136
2023-04-10T01:54:33.361Z,79.4461
2023-04-10T01:55:34.184Z,79.6449
2023-04-10T01:56:34.808Z,79.6033
2023-04-10T01:57:36.480Z,79.7731
2023-04-10T01:58:36.815Z,80.1150
2023-04-10T01:59:37.122Z,80.2151
2023-04-10T02:00:37.908Z,79.8564
2023-04-10T02:01:39.163Z,79.5131
2023-04-10T02:02:40.575Z,79.4059
2023-04-10T02:03:41.800Z,79.4244
2023-04-10T02:04:42.732Z,79.8558
2023-04-10T02:05:43.384Z,79.8701
2023-04-10T02:06:43.900Z,79.9467
2023-04-10T02:07:44.560Z,79.8182
2023-04-10T02:08:45.125Z,79.9155
2023-04-10T02:09:45.669Z,80.1905
2023-04-10T02:10:46.560Z,80.3052
2023-04-10T02:11:47.400Z,80.3550
2023-04-10T02:12:48.163Z,80.2153
2023-04-10T02:13:48.729Z,80.2366
2023-04-10T02:14:48.735Z,80.1977
2023-04-10T02:15:49.275Z,80.1929
2023-04-10T02:16:49.648Z,80.3951
2023-04-10T02:17:50.749Z,80.6812
2023-04-10T02:18:51.568Z,80.6382
2023-04-10T02:19:52.419Z,80.9927
2023-04-10T02:20:52.974Z,81.3427
2023-04-10T02:21:53.525Z,81.2771
2023-04-10T02:22:54.280Z,81.2466
2023-04-10T02:23:55.478Z,81.3256
2023-04-10T02:24:56.175Z,81.1843
2023-04-10T02:25:56.744Z,81.3505
2023-04-10T02:26:57.582Z,81.3608
2023-04-10T02:27:58.484Z,81.2689
2023-04-10T02:28:58.937Z,81.2924
2023-04-10T02:29:59.638Z,81.4032
2023-04-10T02:31:00.387Z,81.6250
2023-04-10T02:32:01.586Z,81.4319
2023-04-10T02:33:02.965Z,81.3567
2023-04-10T02:34:03.676Z,81.2757
2023-04-10T02:35:04.597Z,81.3065
2023-04-10T02:36:05.374Z,81.2010
2023-04-10T02:37:06.417Z,81.3109
2023-04-10T02:38:07.153Z,81.1874
2023-04-10T02:39:07.992Z,81.1357
2023-04-10T02:40:08.702Z,81.1813
2023-04-10T02:41:09.512Z,81.1463
2023-04-10T02:42:10.778Z,81.1734
2023-04-10T02:43:11.509Z,81.1917
2023-04-10T02:44:12.746Z,81.4166
2023-04-10T02:45:13.602Z,81.3442
2023-04-10T02:46:14.829Z,81.4993
2023-04-10T02:47:16.058Z,81.7247
2023-04-10T02:48:17.612Z,81.7307
2023-04-10T02:49:18.612Z,81.6986
2023-04-10T02:50:19.672Z,81.6970
2023-04-10T02:51:20.623Z,81.7799
2023-04-10T02:52:21.854Z,81.8980
2023-04-10T02:53:22.912Z,81.9398
2023-04-10T02:54:23.916Z,81.9259
2023-04-10T02:55:24.858Z,82.0723
2023-04-10T02:56:25.647Z,81.9694
2023-04-10T02:57:26.659Z,81.9647
2023-04-10T02:58:27.720Z,82.0228
2023-04-10T02:59:28.593Z,81.8083
2023-04-10T03:00:29.734Z,81.6264
2023-04-10T03:01:31.061Z,81.8966
2023-04-10T03:02:31.734Z,81.7887
2023-04-10T03:03:32.532Z,81.7938
2023-04-10T03:04:33.182Z,81.7443
2023-04-10T03:05:33.280Z,81.4718
2023-04-10T03:06:33.642Z,81.8124
2023-04-10T03:07:33.910Z,81.8693
2023-04-10T03:08:35.131Z,81.5113
2023-04-10T03:09:36.280Z,81.6943
2023-04-10T03:10:37.239Z,82.0267
2023-04-10T03:11:38.676Z,82.0424
2023-04-10T03:12:39.798Z,81.9637
2023-04-10T03:13:40.062Z,81.9183
2023-04-10T03:14:41.575Z,82.0690
2023-04-10T03:15:41.842Z,82.0772
2023-04-10T03:16:42.730Z,82.1309
2023-04-10T03:17:44.074Z,82.1350
2023-04-10T03:18:44.217Z,82.0283
2023-04-10T03:19:44.582Z,81.7047
2023-04-10T03:20:45.528Z,81.8108
2023-04-10T03:21:46.745Z,81.8867
2023-04-10T03:22:48.015Z,81.7974
2023-04-10T03:23:49.057Z,81.9315
2023-04-10T03:24:49.934Z,81.7492
2023-04-10T03:25:51.456Z,81.6220
2023-04-10T03:26:52.646Z,81.9604
2023-04-10T03:27:52.743Z,82.1828
2023-04-10T03:28:54.158Z,82.2771
2023-04-10T03:31:57.195Z,82.4610
2023-04-10T03:32:57.371Z,82.5614
2023-04-10T03:33:58.549Z,82.5645
2023-04-10T03:34:58.858Z,82.6795
2023-04-10T03:36:00.320Z,82.7365
2023-04-10T03:37:00.391Z,82.7639
2023-04-10T03:38:00.712Z,82.8540
2023-04-10T03:39:00.783Z,82.8184
2023-04-10T03:40:02.231Z,82.9134
2023-04-10T03:41:03.510Z,82.9559
2023-04-10T03:42:03.555Z,82.8501
2023-04-10T03:43:04.177Z,82.9009
2023-04-10T03:44:05.033Z,82.8610
2023-04-10T03:45:05.268Z,82.7561
2023-04-10T03:46:05.927Z,82.6827
2023-04-10T03:47:06.622Z,82.7228
2023-04-10T03:48:07.046Z,83.0053
2023-04-10T03:49:08.016Z,83.0325
2023-04-10T03:50:08.378Z,83.2376
2023-04-10T03:51:08.820Z,83.2672
2023-04-10T03:52:08.876Z,83.3154
2023-04-10T03:53:10.150Z,83.3549
2023-04-10T03:54:10.472Z,83.3063
2023-04-10T03:55:10.728Z,83.2938
2023-04-10T03:56:10.855Z,83.1770
2023-04-10T03:57:11.232Z,83.2192
2023-04-10T03:58:11.869Z,83.2229
2023-04-10T03:59:12.016Z,83.2844
2023-04-10T04:00:12.326Z,83.3676
2023-04-10T04:01:13.088Z,83.2212
2023-04-10T04:02:14.357Z,83.4038
2023-04-10T04:03:15.997Z,83.5518
2023-04-10T04:04:16.892Z,83.4979
2023-04-10T04:05:18.093Z,83.5142
2023-04-10T04:06:18.403Z,83.4424
2023-04-10T04:07:19.007Z,83.2735
2023-04-10T04:08:19.580Z,83.2315
2023-04-10T04:09:20.143Z,83.2589
2023-04-10T04:10:20.580Z,83.1923
2023-04-10T04:11:21.047Z,83.2704
2023-04-10T04:12:21.482Z,83.5883
2023-04-10T04:13:21.805Z,83.6978
2023-04-10T04:14:23.214Z,83.0970
2023-04-10T04:15:23.928Z,83.1208
2023-04-10T04:16:24.732Z,82.7972
2023-04-10T04:17:25.680Z,82.9762
2023-04-10T04:18:26.863Z,83.0838
2023-04-10T04:19:27.661Z,83.1131
2023-04-10T04:20:28.549Z,83.2552
2023-04-10T04:21:29.236Z,83.5220
2023-04-10T04:22:30.224Z,83.5931
2023-04-10T04:23:31.282Z,83.5093
2023-04-10T04:24:31.991Z,83.5910
2023-04-10T04:25:32.949Z,83.5644
2023-04-10T04:26:34.085Z,83.7074
2023-04-10T04:27:35.348Z,83.4764
2023-04-10T04:28:35.743Z,83.6536
2023-04-10T04:29:37.133Z,83.5506
2023-04-10T04:30:38.326Z,83.5523
2023-04-10T04:31:39.229Z,83.6011
2023-04-10T04:32:39.498Z,83.6099
2023-04-10T04:33:40.991Z,83.5008
2023-04-10T04:34:41.947Z,83.4245
2023-04-10T04:35:42.057Z,83.4694
2023-04-10T04:36:42.106Z,83.4240
2023-04-10T04:37:43.600Z,83.5091
2023-04-10T04:39:44.877Z,83.6503
2023-04-10T04:40:44.923Z,83.8891
2023-04-10T04:41:45.437Z,83.8981
2023-04-10T04:42:46.596Z,83.8448
2023-04-10T04:43:48.077Z,83.9431
2023-04-10T04:44:48.421Z,83.7785
2023-04-10T04:45:49.960Z,83.6019
2023-04-10T04:46:50.116Z,83.6023
2023-04-10T04:47:50.139Z,83.7099
2023-04-10T04:48:50.104Z,83.8189
2023-04-10T04:49:50.175Z,83.8615
2023-04-10T04:50:51.557Z,83.8450
2023-04-10T04:51:51.656Z,83.9027
2023-04-10T04:52:53.118Z,83.7890
2023-04-10T04:53:53.484Z,83.7893
2023-04-10T04:54:54.840Z,83.9034
2023-04-10T04:55:55.318Z,83.7741
2023-04-10T04:56:55.510Z,83.8699
2023-04-10T04:57:55.918Z,84.1377
2023-04-10T04:58:57.359Z,84.3870
2023-04-10T04:59:57.541Z,84.3143
2023-04-10T05:00:57.894Z,84.2949
2023-04-10T05:01:58.648Z,84.3099
2023-04-10T05:02:58.978Z,84.4122
2023-04-10T05:03:59.673Z,84.4927
2023-04-10T05:05:01.051Z,84.5239
2023-04-10T05:06:01.207Z,84.5229
2023-04-10T05:07:01.499Z,84.6420
2023-04-10T05:08:02.000Z,84.6124
2023-04-10T05:09:02.176Z,84.6581
2023-04-10T05:10:02.604Z,84.5396
2023-04-10T05:11:03.132Z,84.5182
2023-04-10T05:12:03.585Z,84.4358
2023-04-10T05:13:03.806Z,84.5211
2023-04-10T05:14:04.268Z,84.3079
2023-04-10T05:15:04.660Z,84.3238
2023-04-10T05:16:05.180Z,84.1297
2023-04-10T05:17:06.014Z,84.1330
2023-04-10T05:18:06.741Z,84.1026
2023-04-10T05:19:07.663Z,84.0814
2023-04-10T05:20:08.405Z,84.2444
2023-04-10T05:21:08.669Z,84.4135
2023-04-10T05:22:09.091Z,84.4202
2023-04-10T05:23:09.610Z,84.3001
2023-04-10T05:24:10.130Z,84.2340
2023-04-10T05:25:10.736Z,84.0738
2023-04-10T05:26:11.232Z,84.2022
2023-04-10T05:27:11.822Z,84.3647
2023-04-10T05:28:12.256Z,84.2858
2023-04-10T05:29:12.872Z,84.1353
2023-04-10T05:30:13.328Z,84.1440
2023-04-10T05:31:14.239Z,84.2570
2023-04-10T05:32:15.594Z,84.3169
2023-04-10T05:33:16.223Z,84.0692
2023-04-10T05:34:16.769Z,84.1753
2023-04-10T05:35:17.196Z,84.3423
2023-04-10T05:36:18.015Z,84.2639
2023-04-10T05:37:18.201Z,84.2155
2023-04-10T05:38:18.620Z,84.1335
2023-04-10T05:39:19.753Z,84.3007
2023-04-10T05:40:20.289Z,84.2442
2023-04-10T05:41:20.958Z,84.2718
2023-04-10T05:42:23.731Z,84.2906
2023-04-10T05:43:21.893Z,84.2468
2023-04-10T05:44:22.785Z,84.3844
2023-04-10T05:45:23.503Z,84.3075
2023-04-10T05:46:24.398Z,84.2405
2023-04-10T05:47:25.220Z,84.0410
2023-04-10T05:48:26.183Z,84.1711
2023-04-10T05:49:27.395Z,83.7691
2023-04-10T05:50:30.372Z,83.8238
2023-04-10T05:51:29.770Z,84.2553
2023-04-10T05:52:30.261Z,84.0508
2023-04-10T05:53:30.761Z,83.9272
2023-04-10T05:54:31.268Z,84.0230
2023-04-10T05:55:31.945Z,83.9656
2023-04-10T05:56:32.680Z,83.6582
2023-04-10T05:57:33.283Z,83.8096
2023-04-10T05:58:33.965Z,83.6144
2023-04-10T05:59:34.581Z,83.2887
2023-04-10T06:00:35.237Z,83.3070
2023-04-10T06:01:36.003Z,83.5473
2023-04-10T06:02:37.415Z,83.5644
2023-04-10T06:03:38.689Z,83.5070
2023-04-10T06:04:39.505Z,83.4618
2023-04-10T06:05:40.045Z,83.5636
2023-04-10T06:06:40.761Z,83.4739
2023-04-10T06:07:41.251Z,83.3337
2023-04-10T06:08:41.909Z,83.3500
2023-04-10T06:09:42.351Z,83.3100
2023-04-10T06:10:42.912Z,83.2244
2023-04-10T06:11:43.436Z,83.3920
2023-04-10T06:12:44.024Z,83.3294
2023-04-10T06:13:44.464Z,82.9847
2023-04-10T06:14:45.050Z,82.9661
2023-04-10T06:15:45.902Z,82.8176
2023-04-10T06:16:46.497Z,82.5022
2023-04-10T06:17:47.178Z,82.5052
2023-04-10T06:18:47.850Z,82.3942
2023-04-10T06:19:48.515Z,82.5848
2023-04-10T06:20:49.678Z,82.9117
2023-04-10T06:21:50.543Z,82.9134
2023-04-10T06:22:50.966Z,82.9602
2023-04-10T06:23:51.786Z,82.8624
2023-04-10T06:24:52.886Z,82.2203
2023-04-10T06:25:53.263Z,81.9277
2023-04-10T06:26:53.891Z,81.9850
2023-04-10T06:27:54.608Z,82.1646
2023-04-10T06:28:55.193Z,82.2646
2023-04-10T06:30:55.365Z,81.9696
2023-04-10T06:31:56.829Z,81.9917
2023-04-10T06:32:57.827Z,82.1316
2023-04-10T06:33:58.204Z,82.0249
2023-04-10T06:34:58.943Z,82.0683
2023-04-10T06:35:59.451Z,82.1584
2023-04-10T06:37:00.329Z,82.5396
2023-04-10T06:38:00.693Z,82.4252
2023-04-10T06:39:01.586Z,82.1220
2023-04-10T06:40:02.399Z,82.0431
2023-04-10T06:41:02.864Z,81.8113
2023-04-10T06:42:03.399Z,81.7530
2023-04-10T06:43:03.862Z,81.3911
2023-04-10T06:44:04.423Z,81.3600
2023-04-10T06:45:04.921Z,81.3773
2023-04-10T06:46:05.392Z,81.3801
2023-04-10T06:47:06.932Z,81.4782
2023-04-10T06:48:07.681Z,81.5071
2023-04-10T06:49:08.213Z,81.4550
2023-04-10T06:50:08.803Z,81.1552
2023-04-10T06:51:09.212Z,80.7419
2023-04-10T06:52:09.861Z,80.3332
2023-04-10T06:53:10.237Z,80.2609
2023-04-10T06:54:10.844Z,80.0218
2023-04-10T06:55:11.293Z,79.8331
2023-04-10T06:56:12.006Z,79.1321
2023-04-10T06:57:12.584Z,79.2750
2023-04-10T06:58:12.986Z,79.0204
2023-04-10T06:59:13.707Z,78.9069
2023-04-10T07:00:14.182Z,78.2994
2023-04-10T07:01:15.081Z,78.1914
2023-04-10T07:02:16.227Z,78.4581
2023-04-10T07:03:17.192Z,78.2411
2023-04-10T07:04:18.026Z,77.5123
2023-04-10T07:05:18.454Z,77.1385
2023-04-10T07:06:19.356Z,76.9757
2023-04-10T07:07:19.807Z,76.9599
2023-04-10T07:08:20.447Z,76.7726
2023-04-10T07:09:21.072Z,76.6778
2023-04-10T07:10:21.570Z,76.6367
2023-04-10T07:11:22.728Z,76.1007
2023-04-10T07:12:23.264Z,75.8483
2023-04-10T07:13:23.984Z,75.4284
2023-04-10T07:14:24.458Z,75.2364
2023-04-10T07:15:25.049Z,75.0153
2023-04-10T07:16:26.029Z,74.9417
2023-04-10T07:17:27.201Z,74.8137
2023-04-10T07:18:28.142Z,74.4247
2023-04-10T07:19:28.899Z,74.5654
2023-04-10T07:20:29.603Z,74.2438
2023-04-10T07:21:30.114Z,74.3283
2023-04-10T07:22:30.797Z,74.1582
2023-04-10T07:23:31.558Z,73.9728
2023-04-10T07:24:32.174Z,73.8148
2023-04-10T07:25:32.961Z,73.7585
2023-04-10T07:26:33.583Z,73.7375
2023-04-10T07:27:34.353Z,74.0442
2023-04-10T07:28:34.894Z,74.3923
2023-04-10T07:29:35.759Z,74.2984
2023-04-10T07:30:36.242Z,74.5137
2023-04-10T07:31:37.031Z,74.9052
2023-04-10T07:32:37.869Z,75.1589
2023-04-10T07:33:38.277Z,75.0615
2023-04-10T07:34:39.124Z,74.9098
2023-04-10T07:35:39.656Z,75.0752
2023-04-10T07:36:40.892Z,75.3744
2023-04-10T07:37:42.243Z,75.0845
2023-04-10T07:38:42.849Z,74.6422
2023-04-10T07:39:44.053Z,74.4506
2023-04-10T07:40:44.793Z,74.4346
2023-04-10T07:41:45.583Z,74.7220
2023-04-10T07:42:46.073Z,74.3835
2023-04-10T07:43:46.753Z,74.5439
2023-04-10T07:44:47.490Z,74.3146
2023-04-10T07:45:48.069Z,74.5072
2023-04-10T07:46:49.367Z,74.8228
2023-04-10T07:47:50.079Z,75.1648
2023-04-10T07:48:50.997Z,74.5309
2023-04-10T07:49:51.365Z,75.0011
2023-04-10T07:50:51.987Z,74.9290
2023-04-10T07:51:52.709Z,74.8130
2023-04-10T07:52:53.369Z,74.9621
2023-04-10T07:53:54.213Z,75.0924
2023-04-10T07:54:54.725Z,74.6728
2023-04-10T07:55:55.495Z,74.5950
2023-04-10T07:56:56.199Z,74.6800
2023-04-10T07:57:56.711Z,74.8975
2023-04-10T07:58:58.297Z,75.5946
2023-04-10T07:59:59.042Z,75.3731
2023-04-10T08:00:59.912Z,74.8729
2023-04-10T08:02:00.950Z,74.8403
2023-04-10T08:03:02.443Z,74.4503
2023-04-10T08:04:07.913Z,74.3769
2023-04-10T08:05:08.056Z,73.9295
2023-04-10T08:06:09.352Z,73.7634
2023-04-10T08:07:10.215Z,73.6708
2023-04-10T08:08:10.962Z,73.5717
2023-04-10T08:09:12.094Z,73.2953
2023-04-10T08:10:12.768Z,73.1850
2023-04-10T08:11:13.721Z,73.3477
2023-04-10T08:12:14.561Z,73.7447
2023-04-10T08:13:15.363Z,73.7289
2023-04-10T08:14:18.453Z,73.5859
2023-04-10T08:15:17.920Z,73.4793
2023-04-10T08:16:18.852Z,73.6317
2023-04-10T08:17:20.081Z,73.4888
2023-04-10T08:18:21.191Z,73.8612
2023-04-10T08:19:21.160Z,73.2755
2023-04-10T08:20:22.223Z,73.2422
2023-04-10T08:21:23.202Z,72.9450
2023-04-10T08:22:23.978Z,72.6134
2023-04-10T08:23:24.753Z,72.3024
2023-04-10T08:24:25.512Z,72.2128
2023-04-10T08:25:26.424Z,71.4798
2023-04-10T08:26:27.306Z,71.2105
2023-04-10T08:27:28.034Z,71.2401
2023-04-10T08:28:29.029Z,71.0820
2023-04-10T08:29:29.771Z,71.2853
2023-04-10T08:30:30.678Z,71.5977
2023-04-10T08:31:32.164Z,71.0110
2023-04-10T08:32:33.449Z,70.9819
2023-04-10T08:33:34.466Z,70.6454
2023-04-10T08:34:34.415Z,70.1943
2023-04-10T08:35:35.333Z,69.8303
2023-04-10T08:36:36.180Z,69.8583
2023-04-10T08:37:37.163Z,69.6319
2023-04-10T08:38:37.130Z,69.8162
2023-04-10T08:39:38.031Z,70.2023
2023-04-10T08:40:39.038Z,69.7965
2023-04-10T08:41:39.792Z,69.6698
2023-04-10T08:42:40.811Z,70.0201
2023-04-10T08:43:41.697Z,69.3383
2023-04-10T08:44:42.443Z,69.5762
2023-04-10T08:45:43.326Z,69.1333
2023-04-10T08:46:44.799Z,68.8124
2023-04-10T08:47:45.943Z,68.1394
2023-04-10T08:48:46.954Z,67.7446
2023-04-10T08:49:47.855Z,67.8396
2023-04-10T08:50:48.737Z,67.6729
2023-04-10T08:51:49.245Z,66.9933
2023-04-10T08:52:50.226Z,66.6172
2023-04-10T08:53:51.048Z,66.7032
2023-04-10T08:54:51.922Z,67.4820
2023-04-10T08:55:52.860Z,67.3910
2023-04-10T08:56:53.569Z,66.2560
2023-04-10T08:58:01.650Z,65.8410
2023-04-10T08:58:59.825Z,65.3074
2023-04-10T09:00:04.205Z,65.8829
2023-04-10T09:01:00.880Z,65.1616
2023-04-10T09:02:02.419Z,65.9619
2023-04-10T09:03:02.612Z,65.5792
2023-04-10T09:04:03.607Z,65.7551
2023-04-10T09:05:04.226Z,65.8614
2023-04-10T09:06:04.931Z,65.6708
2023-04-10T09:07:06.075Z,65.4928
2023-04-10T09:08:06.793Z,65.0460
2023-04-10T09:09:07.760Z,65.5465
2023-04-10T09:10:08.569Z,65.1957
2023-04-10T09:11:08.749Z,65.3557
2023-04-10T09:12:09.870Z,65.3051
2023-04-10T09:13:10.651Z,64.7344
2023-04-10T09:14:11.895Z,65.3286
2023-04-10T09:15:12.644Z,64.9282
2023-04-10T09:16:13.839Z,64.7059
2023-04-10T09:17:15.015Z,64.3590
2023-04-10T09:18:16.166Z,63.9465
2023-04-10T09:19:17.458Z,64.0577
2023-04-10T09:20:18.177Z,63.5422
2023-04-10T09:21:19.031Z,63.0367
2023-04-10T09:22:19.743Z,62.8470
2023-04-10T09:23:20.710Z,63.3801
2023-04-10T09:24:21.861Z,63.3031
2023-04-10T09:25:22.754Z,62.6409
2023-04-10T09:26:23.663Z,62.4557
2023-04-10T09:27:24.467Z,62.4179
2023-04-10T09:28:25.357Z,62.4519
2023-04-10T09:29:26.316Z,62.2812
2023-04-10T09:30:27.198Z,61.7697
2023-04-10T09:31:28.480Z,61.8474
2023-04-10T09:32:29.223Z,61.3109
2023-04-10T09:33:30.467Z,61.8816
2023-04-10T09:34:31.224Z,61.3066
2023-04-10T09:35:31.986Z,61.9490
2023-04-10T09:36:33.054Z,60.9521
2023-04-10T09:37:33.791Z,60.8812
2023-04-10T09:38:34.691Z,60.6802
2023-04-10T09:39:35.438Z,60.4782
2023-04-10T09:40:36.263Z,60.3296
2023-04-10T09:41:37.330Z,60.4498
2023-04-10T09:42:38.078Z,60.2330
2023-04-10T09:43:38.975Z,60.0742
2023-04-10T09:44:39.574Z,60.0659
2023-04-10T09:45:40.494Z,59.7165
2023-04-10T09:46:41.449Z,59.7022
2023-04-10T09:47:41.500Z,59.8333
2023-04-10T09:48:42.387Z,60.0141
2023-04-10T09:49:43.283Z,58.9505
2023-04-10T09:50:44.168Z,58.9189
2023-04-10T09:51:45.028Z,59.2427
2023-04-10T09:52:45.878Z,58.0286
2023-04-10T09:53:46.892Z,58.0135
2023-04-10T09:54:47.753Z,58.2820
2023-04-10T09:55:48.470Z,57.7016
2023-04-10T09:56:49.346Z,57.5944
2023-04-10T09:57:50.301Z,57.8073
2023-04-10T09:58:51.047Z,57.9884
2023-04-10T09:59:51.153Z,57.6122
2023-04-10T10:00:51.870Z,57.7716
2023-04-10T10:01:52.935Z,57.3151
2023-04-10T10:02:53.450Z,57.3718
2023-04-10T10:03:54.045Z,57.0202
2023-04-10T10:04:54.863Z,56.9835
2023-04-10T10:05:54.810Z,56.6852
2023-04-10T10:06:55.508Z,56.5130
2023-04-10T10:07:56.379Z,56.5152
2023-04-10T10:08:57.262Z,57.0251
2023-04-10T10:09:58.016Z,57.0363
2023-04-10T10:10:58.866Z,56.9757
2023-04-10T10:11:59.619Z,56.5465
2023-04-10T10:13:00.552Z,56.5251
2023-04-10T10:14:01.335Z,56.7034
2023-04-10T10:15:02.259Z,56.6930
2023-04-10T10:16:03.102Z,56.1774
2023-04-10T10:17:04.049Z,55.5401
2023-04-10T10:18:05.336Z,54.9685
2023-04-10T10:19:06.137Z,54.8719
2023-04-10T10:20:06.711Z,54.7382
2023-04-10T10:21:07.844Z,54.6968
2023-04-10T10:22:08.650Z,54.6709
2023-04-10T10:23:09.562Z,54.8734
2023-04-10T10:24:10.560Z,54.6503
2023-04-10T10:25:11.548Z,54.5015
2023-04-10T10:26:12.156Z,54.3388
2023-04-10T10:27:13.107Z,54.2555
2023-04-10T10:28:14.130Z,54.2884
2023-04-10T10:29:15.456Z,53.9262
2023-04-10T10:30:29.590Z,53.7517
2023-04-10T10:31:22.360Z,53.8197
2023-04-10T10:32:23.622Z,53.6113
2023-04-10T10:33:24.747Z,53.5820
2023-04-10T10:34:25.751Z,53.5123
2023-04-10T10:35:28.682Z,53.3079
2023-04-10T10:36:27.603Z,53.2719
2023-04-10T10:37:28.739Z,53.3833
2023-04-10T10:38:29.579Z,53.5067
2023-04-10T10:39:30.532Z,53.2061
2023-04-10T10:40:31.709Z,52.6973
2023-04-10T10:41:32.528Z,52.9742
2023-04-10T10:42:33.472Z,52.6779
2023-04-10T10:43:34.297Z,52.9168
2023-04-10T10:45:08.212Z,52.7569
2023-04-10T10:46:08.868Z,52.9978
2023-04-10T10:47:09.690Z,53.0068
2023-04-10T10:48:10.863Z,52.8233
2023-04-10T10:49:11.859Z,52.8202
2023-04-10T10:50:12.968Z,52.6591
2023-04-10T10:51:14.027Z,52.2122
2023-04-10T10:52:15.054Z,52.1496
2023-04-10T10:53:15.982Z,51.8722
2023-04-10T10:54:16.826Z,51.7876
2023-04-10T10:55:17.602Z,51.7352
2023-04-10T10:56:18.441Z,51.6294
2023-04-10T10:57:19.445Z,52.1531
2023-04-10T10:58:20.192Z,51.2514
2023-04-10T10:59:20.540Z,50.4817
2023-04-10T11:00:21.669Z,50.3993
2023-04-10T11:01:22.760Z,50.2610
2023-04-10T11:02:23.203Z,49.9056
2023-04-10T11:03:24.658Z,49.5983
2023-04-10T11:05:24.538Z,49.6519
2023-04-10T11:06:25.530Z,49.4678
2023-04-10T11:07:26.988Z,49.5663
2023-04-10T11:08:28.014Z,49.7578
2023-04-10T11:09:28.662Z,49.6546
2023-04-10T11:10:30.189Z,49.6250
2023-04-10T11:11:30.011Z,50.0756
2023-04-10T11:12:30.735Z,50.3282
2023-04-10T11:13:31.577Z,50.2912
2023-04-10T11:14:32.355Z,49.8876
2023-04-10T11:15:33.325Z,49.3857
2023-04-10T11:16:34.716Z,49.1764
2023-04-10T11:17:35.953Z,48.8450
2023-04-10T11:18:37.094Z,48.4890
2023-04-10T11:19:38.706Z,47.9822
2023-04-10T11:20:39.632Z,47.7543
2023-04-10T11:21:40.643Z,48.1829
2023-04-10T11:22:41.442Z,47.8848
2023-04-10T11:23:42.373Z,48.4124
2023-04-10T11:24:43.120Z,48.6444
2023-04-10T11:25:44.277Z,48.1778
2023-04-10T11:26:45.141Z,48.2315
2023-04-10T11:27:45.213Z,48.0396
2023-04-10T11:28:46.361Z,47.9779
2023-04-10T11:29:47.643Z,47.9335
2023-04-10T11:30:48.603Z,47.3845
2023-04-10T11:31:49.474Z,47.3171
2023-04-10T11:32:50.737Z,47.3134
2023-04-10T11:33:52.126Z,47.6217
2023-04-10T11:34:53.099Z,47.2221
2023-04-10T11:35:54.209Z,46.9669
2023-04-10T11:36:54.992Z,47.2737
2023-04-10T11:37:56.019Z,46.2053
2023-04-10T11:38:57.193Z,47.0267
2023-04-10T11:39:58.072Z,46.3334
2023-04-10T11:40:59.044Z,46.4128
2023-04-10T11:41:59.869Z,45.6251
2023-04-10T11:43:00.840Z,45.6001
2023-04-10T11:44:02.016Z,45.6821
2023-04-10T11:45:02.853Z,45.5428
2023-04-10T11:46:04.108Z,45.2783
2023-04-10T11:47:04.049Z,44.8462
2023-04-10T11:48:05.121Z,44.6864
2023-04-10T11:49:06.146Z,44.0103
2023-04-10T11:50:07.085Z,44.0826
2023-04-10T11:51:08.074Z,43.5866
2023-04-10T11:52:09.036Z,42.9715
2023-04-10T11:53:09.863Z,42.4328
2023-04-10T11:54:10.602Z,42.0047
2023-04-10T11:55:11.490Z,41.8444
2023-04-10T11:56:12.406Z,41.8861
2023-04-10T11:57:13.500Z,41.8674
2023-04-10T11:58:14.460Z,40.8353
2023-04-10T11:59:15.088Z,39.7520
2023-04-10T12:00:15.935Z,39.2727
2023-04-10T12:01:16.655Z,39.6297
2023-04-10T12:02:18.147Z,38.7159
2023-04-10T12:03:18.438Z,38.2363
2023-04-10T12:04:19.584Z,38.2685
2023-04-10T12:05:20.077Z,38.2626
2023-04-10T12:06:20.010Z,37.8869
2023-04-10T12:07:20.325Z,37.6757
2023-04-10T12:08:21.055Z,37.5262
2023-04-10T12:09:21.353Z,37.8670
2023-04-10T12:10:21.558Z,37.0264
2023-04-10T12:11:22.532Z,36.8643
2023-04-10T12:12:23.142Z,36.9084
2023-04-10T12:13:23.725Z,37.5055
2023-04-10T12:14:24.852Z,38.1130
2023-04-10T12:15:25.214Z,37.2233
2023-04-10T12:16:26.201Z,36.2003
2023-04-10T12:17:26.995Z,36.3260
2023-04-10T12:18:28.276Z,37.0804
2023-04-10T12:19:29.579Z,36.3795
2023-04-10T12:20:30.063Z,36.3922
2023-04-10T12:21:30.354Z,37.3378
2023-04-10T12:22:31.945Z,35.0676
2023-04-10T12:23:31.820Z,34.9483
2023-04-10T12:24:33.188Z,35.0722
2023-04-10T12:25:33.378Z,35.9715
2023-04-10T12:26:33.866Z,36.5528
2023-04-10T12:27:33.951Z,36.7493
2023-04-10T12:28:34.139Z,36.1476
2023-04-10T12:29:36.527Z,34.6285
2023-04-10T12:30:36.700Z,33.9897
2023-04-10T12:31:37.488Z,34.0453
2023-04-10T12:32:38.387Z,33.0012
2023-04-10T12:33:39.542Z,32.9434
2023-04-10T12:34:39.690Z,33.2645
2023-04-10T12:35:40.031Z,32.8668
2023-04-10T12:36:40.635Z,32.6738
2023-04-10T12:37:41.480Z,33.8656